Time;durP1;ratioP1;P1;durP2;ratioP2;P2;SDS_P1;SDS_P2;PMS_P1;PMS_P2;Temp;Humidity;BMP_temperature;BMP_pressure;BME280_temperature;BME280_humidity;BME280_pressure;Samples;Min_cycle;Max_cycle;Signal;HPM_P1;HPM_P2
2023/07/19 02:44:33;;;;;;;4.50;2.50;;;;;;;22.70;90.49;100504.15;105392;1267;62169;-87
2023/07/19 02:47:21;;;;;;;4.10;2.60;;;;;;;22.71;90.99;100504.98;105526;1269;62048;-88
2023/07/19 02:50:10;;;;;;;7.50;3.10;;;;;;;22.73;91.18;100507.12;105576;1267;76374;-88
2023/07/19 02:52:58;;;;;;;4.10;2.60;;;;;;;22.82;91.23;100505.78;105497;1268;69463;-87
2023/07/19 02:55:46;;;;;;;4.20;2.50;;;;;;;22.95;91.30;100504.55;105519;1267;73103;-89
2023/07/19 02:58:37;;;;;;;5.20;3.30;;;;;;;23.07;91.20;100503.41;105684;1266;61994;-89
2023/07/19 03:01:25;;;;;;;6.20;2.80;;;;;;;23.20;91.01;100505.27;105863;1269;62071;-88
2023/07/19 03:04:13;;;;;;;4.60;2.30;;;;;;;23.36;90.60;100508.02;105334;1267;76389;-90
2023/07/19 03:07:02;;;;;;;10.90;2.50;;;;;;;23.45;90.61;100504.63;105539;1267;68575;-89
2023/07/19 03:09:50;;;;;;;4.00;2.30;;;;;;;23.62;90.11;100505.47;105408;1267;73802;-90
2023/07/19 03:12:38;;;;;;;5.00;2.60;;;;;;;23.73;90.56;100503.63;105351;1267;63025;-88
2023/07/19 03:15:27;;;;;;;5.60;2.70;;;;;;;23.87;90.97;100505.52;105711;1267;62125;-88
2023/07/19 03:18:15;;;;;;;6.80;2.60;;;;;;;24.02;90.34;100508.54;105525;1267;76926;-90
2023/07/19 03:21:04;;;;;;;5.40;2.70;;;;;;;24.10;89.71;100505.96;105470;1269;67647;-87
2023/07/19 03:23:52;;;;;;;4.30;2.40;;;;;;;24.18;88.72;100501.02;105536;1267;74100;-88
2023/07/19 03:26:40;;;;;;;5.30;2.60;;;;;;;24.20;87.59;100500.27;105346;1267;62288;-88
2023/07/19 03:29:29;;;;;;;5.30;2.50;;;;;;;24.18;87.66;100504.14;105524;1270;62378;-89
2023/07/19 03:32:17;;;;;;;4.80;2.60;;;;;;;24.22;86.36;100504.67;105668;1266;75869;-89
2023/07/19 03:35:06;;;;;;;4.50;2.70;;;;;;;24.27;85.95;100503.25;105462;1265;68767;-89
2023/07/19 03:37:54;;;;;;;5.20;2.70;;;;;;;24.35;85.57;100499.96;105446;1268;72467;-91
2023/07/19 03:40:42;;;;;;;5.80;2.60;;;;;;;24.45;85.71;100506.22;105509;1267;62272;-89
2023/07/19 03:43:32;;;;;;;7.20;2.90;;;;;;;24.61;85.53;100500.66;105511;1270;62170;-91
2023/07/19 03:46:20;;;;;;;4.10;2.40;;;;;;;24.87;84.98;100502.60;105396;1267;74299;-87
2023/07/19 03:49:08;;;;;;;4.60;2.30;;;;;;;25.01;84.80;100503.31;105698;1267;69720;-91
2023/07/19 03:51:57;;;;;;;3.70;2.60;;;;;;;25.20;84.45;100503.52;105395;1266;72671;-90
2023/07/19 03:54:45;;;;;;;7.00;2.90;;;;;;;25.33;84.19;100506.98;105410;1267;63651;-88
2023/07/19 03:57:34;;;;;;;4.90;2.40;;;;;;;25.44;83.20;100503.63;105429;1267;62061;-91
2023/07/19 04:00:22;;;;;;;4.40;2.10;;;;;;;25.64;81.71;100505.96;105696;1267;66656;-91
2023/07/19 04:03:10;;;;;;;4.90;2.40;;;;;;;25.92;80.35;100504.24;105516;1267;68633;-91
2023/07/19 04:06:00;;;;;;;4.60;2.30;;;;;;;26.04;79.26;100500.77;105284;1267;65028;-88
2023/07/19 04:09:02;;;;;;;3.90;2.10;;;;;;;26.29;77.56;100504.62;105498;1267;62184;-89
2023/07/19 04:11:50;;;;;;;3.50;2.00;;;;;;;26.48;76.39;100508.97;105406;1267;62100;-91
2023/07/19 04:14:39;;;;;;;5.40;2.50;;;;;;;26.58;75.13;100506.35;105628;1269;66854;-93
2023/07/19 04:17:27;;;;;;;9.90;2.80;;;;;;;26.73;72.75;100496.71;105537;1266;62141;-90
2023/07/19 04:20:16;;;;;;;6.50;2.00;;;;;;;26.96;68.98;100496.40;105711;1266;168157;-87
2023/07/19 04:23:04;;;;;;;3.80;2.20;;;;;;;27.13;66.26;100497.39;105647;1268;62187;-89
2023/07/19 04:25:55;;;;;;;4.40;2.00;;;;;;;27.20;65.21;100499.38;105339;1265;62091;-88
2023/07/19 04:28:45;;;;;;;2.70;1.80;;;;;;;27.39;64.35;100496.36;105613;1269;67911;-92
2023/07/19 04:31:33;;;;;;;4.10;1.90;;;;;;;27.61;62.68;100497.42;105348;1268;62182;-92
2023/07/19 04:34:21;;;;;;;3.40;2.10;;;;;;;27.78;62.16;100498.79;105523;1267;65090;-87
2023/07/19 04:37:10;;;;;;;6.00;2.40;;;;;;;28.01;62.53;100496.86;105269;1267;62711;-91
2023/07/19 04:39:58;;;;;;;4.30;2.20;;;;;;;28.19;61.89;100492.90;105541;1267;61994;-90
2023/07/19 04:42:50;;;;;;;4.10;2.30;;;;;;;28.39;60.46;100491.64;105428;1267;66868;-90
2023/07/19 04:45:43;;;;;;;7.10;2.90;;;;;;;28.47;58.83;100489.97;105539;1267;62193;-87
2023/07/19 04:48:34;;;;;;;5.50;2.10;;;;;;;28.69;58.20;100492.71;105413;1267;65834;-91
2023/07/19 04:51:23;;;;;;;5.10;1.70;;;;;;;28.95;57.87;100494.45;105497;1270;61985;-88
2023/07/19 04:54:11;;;;;;;2.90;1.90;;;;;;;29.19;56.79;100490.89;105430;1267;62572;-87
2023/07/19 04:57:00;;;;;;;4.90;2.30;;;;;;;29.51;54.05;100489.26;105449;1265;67738;-89
2023/07/19 04:59:48;;;;;;;2.70;1.60;;;;;;;29.66;51.84;100491.79;105294;1267;62045;-88
2023/07/19 05:02:38;;;;;;;2.80;1.90;;;;;;;29.74;50.35;100488.54;105521;1267;62795;-88
2023/07/19 05:05:27;;;;;;;8.10;2.30;;;;;;;29.88;49.97;100483.55;105412;1267;62161;-91
2023/07/19 05:08:15;;;;;;;3.40;1.90;;;;;;;30.02;48.77;100490.89;105448;1269;62054;-88
2023/07/19 05:11:04;;;;;;;4.00;1.90;;;;;;;30.06;47.05;100495.29;105316;1267;67893;-92
2023/07/19 05:13:52;;;;;;;2.40;1.40;;;;;;;30.24;46.54;100494.30;105438;1270;62048;-91
2023/07/19 05:16:41;;;;;;;5.20;1.50;;;;;;;30.40;45.48;100495.41;105271;1270;65138;-91
2023/07/19 05:19:30;;;;;;;3.30;1.50;;;;;;;30.59;45.17;100492.59;105438;1268;62093;-88
2023/07/19 05:22:19;;;;;;;9.50;1.80;;;;;;;30.80;44.56;100493.40;105444;1267;62061;-91
2023/07/19 05:25:09;;;;;;;2.60;1.30;;;;;;;30.98;44.38;100489.94;105305;1267;67015;-88
2023/07/19 05:27:57;;;;;;;3.10;1.50;;;;;;;30.95;42.95;100489.15;105502;1267;62210;-88
2023/07/19 05:30:46;;;;;;;6.70;1.70;;;;;;;31.01;41.89;100488.29;105383;1267;64812;-92
2023/07/19 05:33:35;;;;;;;2.30;1.50;;;;;;;31.13;40.87;100483.63;105486;1267;62180;-87
2023/07/19 05:36:23;;;;;;;2.30;1.10;;;;;;;31.27;41.58;100479.13;105626;1267;62105;-91
2023/07/19 05:39:12;;;;;;;3.60;1.40;;;;;;;31.47;41.35;100476.98;105507;1269;66696;-91
2023/07/19 05:42:01;;;;;;;4.30;1.60;;;;;;;31.65;40.51;100473.37;105448;1268;62181;-88
2023/07/19 05:44:48;;;;;;;2.90;1.30;;;;;;;31.67;39.29;100475.02;105321;1267;64056;-87
2023/07/19 05:47:37;;;;;;;2.70;1.60;;;;;;;31.69;38.17;100472.50;105559;1268;62157;-88
2023/07/19 05:50:27;;;;;;;4.00;1.60;;;;;;;31.74;37.79;100471.72;105573;1268;62100;-89
2023/07/19 05:53:16;;;;;;;4.80;1.80;;;;;;;31.82;37.89;100475.65;105398;1269;67590;-89
2023/07/19 05:56:04;;;;;;;2.90;1.10;;;;;;;31.95;37.79;100471.04;105586;1268;62071;-91
2023/07/19 05:58:54;;;;;;;2.40;1.30;;;;;;;32.16;36.83;100469.85;105557;1270;62849;-88
2023/07/19 06:01:42;;;;;;;3.40;1.30;;;;;;;32.27;36.56;100473.55;105509;1267;61988;-91
2023/07/19 06:04:30;;;;;;;3.00;1.20;;;;;;;32.40;36.28;100476.66;105487;1269;61979;-92
2023/07/19 06:07:19;;;;;;;2.00;1.10;;;;;;;32.60;35.97;100477.23;105578;1269;66884;-90
2023/07/19 06:10:08;;;;;;;3.60;1.70;;;;;;;32.77;35.22;100473.64;105835;1268;62100;-93
2023/07/19 06:12:56;;;;;;;2.50;1.40;;;;;;;32.85;35.14;100473.73;105541;1270;62851;-91
2023/07/19 06:15:44;;;;;;;2.20;1.20;;;;;;;32.97;35.11;100473.10;105550;1268;62187;-91
2023/07/19 06:18:32;;;;;;;1.20;1.00;;;;;;;33.18;35.14;100472.31;105586;1266;62058;-91
2023/07/19 06:21:23;;;;;;;1.20;1.10;;;;;;;33.41;34.98;100474.38;105610;1270;67685;-91
2023/07/19 06:24:11;;;;;;;2.40;1.60;;;;;;;33.47;34.10;100477.48;105792;1268;60576;-91
2023/07/19 06:26:59;;;;;;;2.40;1.10;;;;;;;33.51;33.13;100475.12;105713;1267;64836;-90
2023/07/19 06:29:48;;;;;;;14.30;1.90;;;;;;;33.59;33.22;100469.00;105654;1267;62193;-91
2023/07/19 06:32:36;;;;;;;2.90;0.90;;;;;;;33.72;33.30;100467.57;105851;1268;62106;-91
2023/07/19 06:35:24;;;;;;;3.50;1.10;;;;;;;33.82;33.09;100465.48;105649;1267;67805;-92
2023/07/19 06:38:13;;;;;;;1.70;1.20;;;;;;;33.94;33.01;100462.53;105429;1267;61993;-92
2023/07/19 06:41:02;;;;;;;3.00;1.40;;;;;;;33.99;32.30;100464.70;105495;1267;64692;-92
2023/07/19 06:43:50;;;;;;;2.80;1.30;;;;;;;34.08;32.37;100466.96;105505;1267;61985;-90
2023/07/19 06:46:39;;;;;;;1.90;1.10;;;;;;;34.09;31.71;100466.94;105470;1267;61962;-92
2023/07/19 06:49:27;;;;;;;2.60;1.30;;;;;;;34.19;32.26;100464.52;105282;1267;66369;-90
2023/07/19 06:52:16;;;;;;;2.80;1.30;;;;;;;34.25;31.99;100466.56;105515;1267;62117;-92
2023/07/19 06:55:05;;;;;;;2.50;1.60;;;;;;;34.36;31.73;100464.09;105679;1267;65076;-91
2023/07/19 06:57:53;;;;;;;2.20;1.30;;;;;;;34.44;31.86;100460.98;105509;1267;62001;-92
2023/07/19 07:00:42;;;;;;;5.00;1.60;;;;;;;34.51;32.19;100459.34;105579;1267;60139;-93
2023/07/19 07:03:33;;;;;;;3.30;1.50;;;;;;;34.58;32.48;100458.37;105588;1267;66765;-91
2023/07/19 07:06:22;;;;;;;2.10;1.30;;;;;;;34.78;32.15;100458.19;105395;1265;61907;-91
2023/07/19 07:09:10;;;;;;;4.90;1.40;;;;;;;34.86;32.16;100455.84;105453;1266;64050;-93
2023/07/19 07:11:59;;;;;;;2.40;1.40;;;;;;;34.97;32.38;100450.51;105474;1271;62072;-92
2023/07/19 07:14:47;;;;;;;2.70;1.60;;;;;;;35.19;30.81;100450.10;105664;1269;62065;-91
2023/07/19 07:17:40;;;;;;;3.70;1.80;;;;;;;35.28;30.11;100447.87;105497;1267;65775;-93
2023/07/19 07:20:29;;;;;;;3.60;2.20;;;;;;;35.39;29.95;100446.52;105391;1270;62208;-91
2023/07/19 07:23:32;;;;;;;2.60;1.60;;;;;;;35.39;29.53;100445.20;105558;1270;65145;-91
2023/07/19 07:26:36;;;;;;;3.20;1.80;;;;;;;35.40;29.25;100446.98;105311;1267;62197;-93
2023/07/19 07:29:31;;;;;;;2.60;1.40;;;;;;;35.32;28.73;100446.88;105609;1269;62154;-91
2023/07/19 07:32:20;;;;;;;3.50;1.20;;;;;;;35.43;28.90;100445.59;105672;1267;66786;-92
2023/07/19 07:35:09;;;;;;;4.20;1.50;;;;;;;35.69;28.88;100442.78;105563;1268;62100;-91
2023/07/19 07:37:58;;;;;;;5.30;1.80;;;;;;;35.85;27.84;100441.48;105466;1267;65159;-92
2023/07/19 07:40:47;;;;;;;1.60;1.20;;;;;;;35.79;27.47;100438.27;105444;1267;62132;-92
2023/07/19 07:43:36;;;;;;;3.30;1.80;;;;;;;35.80;27.62;100437.92;105632;1270;61991;-91
2023/07/19 07:46:29;;;;;;;3.50;1.40;;;;;;;35.88;28.00;100436.35;105514;1266;68201;-90
2023/07/19 07:49:17;;;;;;;2.50;1.30;;;;;;;36.05;27.64;100432.98;105433;1268;61960;-91
2023/07/19 07:52:06;;;;;;;3.80;1.30;;;;;;;36.21;27.57;100430.04;105864;1266;63993;-91
2023/07/19 07:54:55;;;;;;;3.70;1.50;;;;;;;36.40;27.55;100429.63;105517;1268;62101;-91
2023/07/19 07:57:50;;;;;;;2.20;1.00;;;;;;;36.66;27.19;100427.73;105418;1270;62129;-93
2023/07/19 08:00:54;;;;;;;2.50;1.20;;;;;;;36.72;26.39;100424.66;105581;1268;68254;-92
2023/07/19 08:04:09;;;;;;;;;;;;;;;;;;;;;
2023/07/19 08:07:01;;;;;;;1.50;1.10;;;;;;;36.74;25.41;100422.30;105515;1271;64059;-93
2023/07/19 08:09:53;;;;;;;2.30;0.90;;;;;;;36.65;25.55;100415.16;105530;1270;62191;-92
2023/07/19 08:12:50;;;;;;;2.80;1.20;;;;;;;36.56;25.64;100411.21;105362;1268;62122;-91
2023/07/19 08:15:49;;;;;;;;;;;;;;;36.46;25.38;100411.23;105407;1267;76474;-93
2023/07/19 08:18:38;;;;;;;5.20;1.40;;;;;;;36.42;25.24;100408.05;105395;1270;62077;-92
2023/07/19 08:21:37;;;;;;;2.60;1.10;;;;;;;36.38;25.34;100402.47;105640;1268;64056;-94
2023/07/19 08:24:34;;;;;;;2.30;1.00;;;;;;;36.27;25.59;100398.65;105560;1268;62140;-90
2023/07/19 08:27:25;;;;;;;2.30;1.20;;;;;;;36.19;25.59;100394.91;105184;1269;62177;-93
2023/07/19 08:30:18;;;;;;;3.20;1.30;;;;;;;36.19;25.87;100391.33;105685;1271;67551;-93
2023/07/19 08:33:11;;;;;;;3.40;1.40;;;;;;;36.14;25.83;100392.83;105475;1268;62183;-92
2023/07/19 08:36:01;;;;;;;2.50;1.10;;;;;;;36.44;26.14;100390.52;105619;1266;64240;-92
2023/07/19 08:38:52;;;;;;;3.40;1.30;;;;;;;36.63;25.73;100387.50;105489;1268;62125;-91
2023/07/19 08:41:44;;;;;;;2.10;1.10;;;;;;;36.69;25.42;100384.36;105591;1270;62011;-91
2023/07/19 08:44:33;;;;;;;2.30;1.10;;;;;;;36.51;25.14;100387.35;105364;1265;66697;-92
2023/07/19 08:47:24;;;;;;;2.60;0.90;;;;;;;36.51;25.09;100387.35;105403;1269;62177;-92
2023/07/19 08:50:23;;;;;;;3.40;1.10;;;;;;;36.72;24.52;100388.70;105367;1267;65150;-91
2023/07/19 08:53:11;;;;;;;2.60;1.40;;;;;;;36.87;24.14;100383.21;105325;1274;62067;-93
2023/07/19 08:56:10;;;;;;;;;;;;;;;;;;;;;
2023/07/19 08:59:17;;;;;;;5.00;1.10;;;;;;;36.98;24.01;100379.30;105349;1268;66872;-91
2023/07/19 09:02:08;;;;;;;3.10;0.90;;;;;;;36.84;24.05;100379.98;105222;1268;62092;-93
2023/07/19 09:05:08;;;;;;;2.50;1.20;;;;;;;36.47;24.69;100382.66;105420;1268;65433;-92
2023/07/19 09:08:02;;;;;;;2.90;1.00;;;;;;;36.27;25.20;100381.31;105736;1266;62039;-90
2023/07/19 09:10:57;;;;;;;3.90;1.30;;;;;;;36.41;25.39;100376.48;105602;1267;62082;-90
2023/07/19 09:13:53;;;;;;;2.10;1.10;;;;;;;36.53;24.67;100379.04;105530;1270;67779;-91
2023/07/19 09:16:47;;;;;;;3.00;0.80;;;;;;;36.62;24.51;100379.23;105374;1267;62182;-91
2023/07/19 09:19:50;;;;;;;2.50;1.70;;;;;;;36.83;25.41;100370.19;105517;1271;65922;-93
2023/07/19 09:23:39;;;;;;;;;;;;;;;;;;;;;
2023/07/19 09:31:25;;;;;;;2.40;1.20;;;;;;;36.58;26.14;100361.39;105435;1268;66707;-92
2023/07/19 09:35:30;;;;;;;1.10;0.90;;;;;;;36.94;26.23;100357.89;105617;1268;62083;-92
2023/07/19 09:38:39;;;;;;;7.90;1.40;;;;;;;36.76;26.77;100360.10;105551;1268;62887;-90
2023/07/19 09:41:35;;;;;;;2.30;1.00;;;;;;;36.47;26.90;100357.69;105415;1268;62072;-91
2023/07/19 09:44:28;;;;;;;1.40;1.10;;;;;;;36.22;26.87;100349.89;105456;1267;62071;-92
2023/07/19 09:47:18;;;;;;;;;;;;;;;36.12;27.20;100345.61;105511;1268;68783;-91
2023/07/19 09:50:21;;;;;;;3.50;1.20;;;;;;;36.13;26.87;100344.77;105512;1268;62081;-91
2023/07/19 09:53:21;;;;;;;1.70;1.10;;;;;;;36.10;26.34;100341.34;105831;1268;64352;-91
2023/07/19 09:56:11;;;;;;;2.10;1.00;;;;;;;35.91;26.60;100336.92;108227;1269;59788;-90
2023/07/19 09:59:31;;;;;;;2.60;1.00;;;;;;;35.81;26.76;100340.52;105596;1270;61983;-92
2023/07/19 10:02:30;;;;;;;10.10;1.50;;;;;;;35.87;26.90;100337.88;105898;1270;67772;-93
2023/07/19 10:05:27;;;;;;;2.40;1.20;;;;;;;35.96;27.08;100326.86;105306;1268;62187;-87
2023/07/19 10:08:17;;;;;;;2.40;1.30;;;;;;;36.21;27.02;100320.49;105654;1268;65069;-86
2023/07/19 10:11:07;;;;;;;1.80;1.20;;;;;;;36.43;26.30;100314.34;105873;1269;62092;-87
2023/07/19 10:13:58;;;;;;;1.80;1.30;;;;;;;36.51;25.52;100312.70;105694;1266;62139;-86
2023/07/19 10:16:53;;;;;;;3.90;1.20;;;;;;;36.51;25.14;100308.39;105625;1268;73520;-89
2023/07/19 10:20:14;;;;;;;3.70;1.20;;;;;;;36.51;24.97;100305.11;105353;1268;62021;-89
2023/07/19 10:23:06;;;;;;;2.20;0.90;;;;;;;36.38;25.01;100299.51;105528;1268;65188;-89
2023/07/19 10:25:54;;;;;;;3.70;1.00;;;;;;;36.35;25.59;100290.35;105892;1267;62145;-89
2023/07/19 10:28:43;;;;;;;21.70;2.00;;;;;;;36.50;25.76;100290.21;105571;1270;62079;-88
2023/07/19 10:31:33;;;;;;;2.20;1.30;;;;;;;36.73;25.26;100285.55;105784;1268;67037;-88
2023/07/19 10:34:29;;;;;;;9.30;1.80;;;;;;;36.80;24.87;100284.73;105552;1267;62106;-90
2023/07/19 10:37:33;;;;;;;1.60;1.00;;;;;;;36.78;24.20;100283.07;105197;1271;63943;-88
2023/07/19 10:40:21;;;;;;;3.40;1.30;;;;;;;36.72;23.97;100285.45;105336;1270;62368;-88
2023/07/19 10:43:09;;;;;;;1.40;0.90;;;;;;;36.57;24.26;100284.98;105289;1268;62242;-87
2023/07/19 10:45:59;;;;;;;2.80;1.10;;;;;;;36.54;24.60;100281.43;105306;1273;67398;-88
2023/07/19 10:48:48;;;;;;;5.10;1.30;;;;;;;36.72;24.78;100284.94;105373;1268;61975;-87
2023/07/19 10:51:39;;;;;;;2.10;1.60;;;;;;;36.96;24.27;100279.89;105269;1266;65609;-88
2023/07/19 10:54:28;;;;;;;2.90;1.20;;;;;;;37.12;23.99;100276.69;105272;1269;62029;-87
2023/07/19 10:57:27;;;;;;;4.00;1.00;;;;;;;37.34;23.19;100273.35;105392;1273;61997;-88
2023/07/19 11:00:16;;;;;;;2.40;1.30;;;;;;;37.58;22.93;100267.67;105599;1269;66881;-89
2023/07/19 11:03:07;;;;;;;1.70;1.20;;;;;;;37.92;22.61;100265.52;105463;1268;62055;-89
2023/07/19 11:05:57;;;;;;;5.30;1.20;;;;;;;38.21;22.52;100265.27;105525;1268;63951;-90
2023/07/19 11:08:49;;;;;;;3.40;0.90;;;;;;;38.37;22.55;100267.08;105355;1267;62142;-90
2023/07/19 11:11:38;;;;;;;2.50;1.30;;;;;;;38.40;21.82;100261.13;105383;1268;62167;-87
2023/07/19 11:14:27;;;;;;;4.80;1.40;;;;;;;38.37;21.67;100265.92;105458;1267;67626;-88
2023/07/19 11:17:25;;;;;;;2.90;1.60;;;;;;;38.14;21.61;100268.41;105528;1268;62190;-89
2023/07/19 11:20:26;;;;;;;1.80;1.20;;;;;;;37.95;21.94;100260.51;105396;1268;64062;-89
2023/07/19 11:23:15;;;;;;;2.20;0.90;;;;;;;37.97;21.93;100257.23;105245;1268;62004;-88
2023/07/19 11:26:04;;;;;;;5.10;1.30;;;;;;;38.00;21.55;100253.73;105376;1268;62180;-89
2023/07/19 11:28:56;;;;;;;2.80;0.90;;;;;;;38.06;21.85;100252.30;105329;1267;67664;-88
2023/07/19 11:31:44;;;;;;;1.30;1.20;;;;;;;38.39;21.70;100244.72;105456;1268;62180;-88
2023/07/19 11:34:32;;;;;;;3.20;1.00;;;;;;;38.74;21.95;100240.04;105253;1267;64851;-88
2023/07/19 11:37:33;;;;;;;1.20;1.10;;;;;;;39.03;21.14;100233.47;105285;1270;62069;-89
2023/07/19 11:40:23;;;;;;;3.60;1.40;;;;;;;39.44;21.03;100233.35;105365;1268;61753;-89
2023/07/19 11:43:12;;;;;;;1.40;1.00;;;;;;;39.72;20.59;100230.55;105482;1268;67882;-88
2023/07/19 11:46:01;;;;;;;4.30;1.50;;;;;;;39.70;20.22;100227.29;105458;1270;62185;-88
2023/07/19 11:48:50;;;;;;;3.50;1.20;;;;;;;39.62;20.23;100223.89;105538;1268;64023;-89
2023/07/19 11:51:39;;;;;;;2.40;1.00;;;;;;;39.51;20.24;100224.17;105518;1271;62152;-88
2023/07/19 11:54:28;;;;;;;3.50;1.00;;;;;;;39.60;20.45;100221.04;105362;1272;62120;-89
2023/07/19 11:57:17;;;;;;;6.10;2.90;;;;;;;39.75;19.76;100218.08;105498;1267;68627;-88
2023/07/19 12:00:10;;;;;;;5.10;2.50;;;;;;;39.68;20.32;100223.82;105671;1269;62179;-89
2023/07/19 12:03:00;;;;;;;3.40;1.40;;;;;;;39.76;20.26;100217.13;105514;1268;65143;-89
2023/07/19 12:05:48;;;;;;;4.40;1.00;;;;;;;39.90;19.89;100208.59;105393;1268;62157;-90
2023/07/19 12:08:39;;;;;;;2.10;1.10;;;;;;;40.10;19.97;100202.75;105459;1268;62062;-90
2023/07/19 12:11:32;;;;;;;3.90;1.40;;;;;;;40.06;20.10;100201.94;105622;1268;67013;-90
2023/07/19 12:14:21;;;;;;;2.90;1.20;;;;;;;39.86;19.72;100199.88;105586;1268;61984;-90
2023/07/19 12:17:11;;;;;;;3.40;1.20;;;;;;;39.58;19.88;100198.91;105514;1268;64585;-91
2023/07/19 12:20:04;;;;;;;3.00;0.90;;;;;;;39.36;19.68;100193.17;105482;1269;62289;-91
2023/07/19 12:22:52;;;;;;;2.30;1.00;;;;;;;39.23;20.00;100186.22;105365;1271;62043;-90
2023/07/19 12:25:43;;;;;;;11.50;5.70;;;;;;;39.12;20.04;100185.43;105371;1268;67121;-90
2023/07/19 12:28:31;;;;;;;4.90;2.40;;;;;;;39.11;20.27;100182.80;105365;1268;62107;-90
2023/07/19 12:31:22;;;;;;;4.50;2.40;;;;;;;39.08;20.05;100180.58;105382;1267;63890;-90
2023/07/19 12:34:23;;;;;;;5.00;2.00;;;;;;;39.11;20.21;100174.20;105441;1268;62165;-89
2023/07/19 12:37:18;;;;;;;1.80;0.90;;;;;;;39.17;19.59;100170.91;105542;1268;62028;-89
2023/07/19 12:40:08;;;;;;;;;;;;;;;39.36;19.41;100166.14;105430;1271;67750;-89
2023/07/19 12:42:59;;;;;;;3.80;1.80;;;;;;;39.96;19.69;100162.11;105385;1271;69652;-90
2023/07/19 12:45:50;;;;;;;7.00;1.70;;;;;;;40.49;19.12;100160.92;105540;1269;65509;-89
2023/07/19 12:48:40;;;;;;;2.40;1.10;;;;;;;40.90;18.63;100155.09;105494;1268;62674;-88
2023/07/19 12:51:29;;;;;;;3.10;1.20;;;;;;;40.98;18.51;100150.06;105564;1270;62055;-91
2023/07/19 12:54:25;;;;;;;1.60;1.10;;;;;;;41.19;18.50;100154.70;105393;1267;66053;-90
2023/07/19 12:57:20;;;;;;;1.80;0.80;;;;;;;41.32;18.42;100159.92;105536;1270;62088;-89
2023/07/19 13:00:13;;;;;;;1.40;0.90;;;;;;;41.33;18.45;100157.13;105644;1269;63460;-90
2023/07/19 13:03:04;;;;;;;2.60;1.00;;;;;;;41.44;19.23;100157.60;105471;1267;62112;-92
2023/07/19 13:05:53;;;;;;;3.10;1.00;;;;;;;41.64;19.65;100155.78;105759;1267;62075;-89
2023/07/19 13:08:43;;;;;;;1.70;1.00;;;;;;;41.81;19.11;100153.69;105591;1268;67388;-92
2023/07/19 13:11:38;;;;;;;37.30;3.90;;;;;;;42.05;19.10;100152.98;105465;1268;61968;-90
2023/07/19 13:14:26;;;;;;;8.80;1.30;;;;;;;42.28;18.38;100150.81;105425;1268;64233;-90
2023/07/19 13:17:14;;;;;;;4.00;1.10;;;;;;;42.43;18.70;100143.81;105391;1267;62080;-89
2023/07/19 13:20:11;;;;;;;6.10;1.20;;;;;;;42.43;19.34;100140.21;105436;1270;62091;-89
2023/07/19 13:23:00;;;;;;;1.90;1.30;;;;;;;42.32;18.96;100138.31;105520;1268;67970;-91
2023/07/19 18:43:51;;;;;;;3.30;1.50;;;;;;;28.17;59.35;100122.52;105488;1266;62167;-92
2023/07/19 18:46:40;;;;;;;3.10;1.50;;;;;;;28.04;60.18;100124.65;105458;1267;64124;-90
2023/07/19 18:49:31;;;;;;;1.90;1.10;;;;;;;27.96;60.10;100128.69;105566;1270;62131;-92
2023/07/19 18:52:19;;;;;;;4.00;1.40;;;;;;;27.87;59.70;100127.75;105497;1267;62096;-89
2023/07/19 18:55:08;;;;;;;2.10;1.50;;;;;;;27.83;59.33;100131.13;106356;1267;65657;-87
2023/07/19 18:57:59;;;;;;;2.00;1.40;;;;;;;27.82;58.93;100125.50;106001;1267;61104;-89
2023/07/19 19:00:47;;;;;;;10.50;1.70;;;;;;;27.71;59.14;100123.42;105821;1268;65014;-88
2023/07/19 19:03:37;;;;;;;2.20;1.30;;;;;;;27.60;59.10;100123.77;106072;1267;62173;-88
2023/07/19 19:06:28;;;;;;;3.50;1.60;;;;;;;27.49;60.89;100116.42;106604;1267;62131;-87
2023/07/19 19:09:17;;;;;;;2.10;1.30;;;;;;;27.30;62.49;100112.27;106152;1265;67895;-92
2023/07/19 19:12:06;;;;;;;1.90;1.50;;;;;;;27.24;63.01;100109.39;105837;1266;62178;-89
2023/07/19 19:14:57;;;;;;;4.10;1.70;;;;;;;27.19;63.21;100111.54;105911;1267;62888;-88
2023/07/19 19:17:45;;;;;;;5.80;1.60;;;;;;;27.07;63.88;100119.91;105790;1266;62029;-88
2023/07/19 19:20:34;;;;;;;5.10;1.60;;;;;;;26.98;64.33;100127.05;105906;1267;62011;-90
2023/07/19 19:23:24;;;;;;;3.60;1.80;;;;;;;26.85;64.74;100126.63;105852;1267;66530;-89
2023/07/19 19:26:12;;;;;;;2.90;1.60;;;;;;;26.72;65.24;100134.77;105772;1267;62173;-90
2023/07/19 19:29:00;;;;;;;5.00;1.70;;;;;;;26.71;64.89;100141.09;105918;1265;63992;-90
2023/07/19 19:31:49;;;;;;;2.00;1.50;;;;;;;26.64;65.23;100141.32;105981;1267;62035;-91
2023/07/19 19:34:38;;;;;;;3.00;1.70;;;;;;;26.52;65.78;100138.38;105794;1271;61167;-88
2023/07/19 19:37:26;;;;;;;2.80;1.20;;;;;;;26.42;66.32;100136.10;106000;1267;67119;-88
2023/07/19 19:40:15;;;;;;;3.30;1.60;;;;;;;26.35;66.55;100140.72;105906;1267;62084;-91
2023/07/19 19:43:04;;;;;;;2.50;1.50;;;;;;;26.21;67.75;100144.10;105888;1270;63634;-90
2023/07/19 19:45:53;;;;;;;5.60;1.90;;;;;;;26.16;68.37;100141.77;105951;1267;61934;-90
2023/07/19 19:48:41;;;;;;;9.60;2.00;;;;;;;26.08;68.95;100134.92;105862;1267;62097;-91
2023/07/19 19:51:29;;;;;;;12.20;2.40;;;;;;;25.98;69.57;100124.24;105944;1267;67090;-89
2023/07/19 19:54:20;;;;;;;7.10;1.70;;;;;;;25.89;70.16;100121.53;106113;1266;62125;-89
2023/07/19 19:57:10;;;;;;;3.60;1.60;;;;;;;25.74;71.04;100121.20;105880;1267;64067;-89
2023/07/19 20:00:01;;;;;;;4.70;1.50;;;;;;;25.71;71.66;100119.73;105797;1272;62451;-90
2023/07/19 20:02:52;;;;;;;3.30;1.70;;;;;;;25.65;72.62;100118.82;105819;1270;60458;-91
2023/07/19 20:06:01;;;;;;;2.60;1.60;;;;;;;25.72;72.78;100121.02;105845;1271;67856;-91
2023/07/19 20:08:53;;;;;;;4.60;2.00;;;;;;;25.70;72.29;100124.60;105728;1267;68695;-92
2023/07/19 20:11:42;;;;;;;5.70;1.60;;;;;;;25.59;72.66;100127.33;105783;1265;73650;-92
2023/07/19 20:14:36;;;;;;;6.70;1.90;;;;;;;25.51;73.28;100138.63;105719;1267;62088;-91
2023/07/19 20:17:24;;;;;;;4.00;1.90;;;;;;;25.36;74.34;100147.14;106007;1271;62071;-91
2023/07/19 20:20:13;;;;;;;5.40;2.00;;;;;;;25.25;74.61;100152.65;105790;1267;76158;-90
2023/07/19 20:23:12;;;;;;;3.70;1.40;;;;;;;25.19;74.97;100153.88;105505;1267;69557;-90
2023/07/19 20:26:01;;;;;;;4.00;1.60;;;;;;;25.20;74.99;100153.65;105665;1265;72757;-90
2023/07/19 20:29:00;;;;;;;2.30;1.60;;;;;;;25.21;74.86;100151.74;105394;1267;62130;-87
2023/07/19 20:31:51;;;;;;;2.90;1.70;;;;;;;25.21;74.60;100151.73;105563;1267;62092;-89
2023/07/19 20:34:44;;;;;;;4.30;1.40;;;;;;;25.08;74.71;100155.89;105357;1267;76547;-89
2023/07/19 20:37:43;;;;;;;5.80;2.10;;;;;;;24.92;75.72;100161.66;105403;1268;69310;-86
2023/07/19 20:40:32;;;;;;;4.30;1.90;;;;;;;24.79;75.87;100160.40;105454;1267;73639;-87
2023/07/19 20:43:24;;;;;;;6.70;1.80;;;;;;;24.62;77.43;100154.31;105385;1270;62249;-87
2023/07/19 20:46:12;;;;;;;4.30;1.60;;;;;;;24.56;78.33;100151.62;105432;1267;62196;-90
2023/07/19 20:49:11;;;;;;;3.10;1.50;;;;;;;24.53;79.33;100160.59;105387;1269;77484;-87
2023/07/19 20:52:02;;;;;;;3.00;1.80;;;;;;;24.51;79.84;100169.51;105494;1267;69444;-89
2023/07/19 20:54:51;;;;;;;4.40;1.90;;;;;;;24.52;79.31;100170.48;105541;1267;72315;-90
2023/07/19 20:57:39;;;;;;;4.90;1.90;;;;;;;24.47;78.96;100165.63;105450;1267;62127;-90
2023/07/19 21:00:28;;;;;;;3.20;1.70;;;;;;;24.47;77.94;100167.70;105594;1267;62119;-89
2023/07/19 21:03:16;;;;;;;4.70;1.70;;;;;;;24.49;77.17;100166.61;105466;1267;74370;-89
2023/07/19 21:06:04;;;;;;;3.20;1.80;;;;;;;24.51;76.24;100166.23;105424;1267;69722;-89
2023/07/19 21:08:53;;;;;;;3.40;2.00;;;;;;;24.45;75.31;100169.98;105179;1270;71460;-89
2023/07/19 21:11:41;;;;;;;2.80;1.60;;;;;;;24.28;76.16;100172.64;105283;1267;62072;-89
2023/07/19 21:14:30;;;;;;;3.90;1.90;;;;;;;24.11;77.50;100169.52;105488;1267;61984;-89
2023/07/19 21:17:19;;;;;;;2.00;1.50;;;;;;;24.05;77.80;100164.28;105388;1267;76106;-89
2023/07/19 21:20:08;;;;;;;3.40;1.60;;;;;;;23.93;78.12;100159.64;105380;1270;69066;-88